Time;durP1;ratioP1;P1;durP2;ratioP2;P2;SDS_P1;SDS_P2;PMS_P1;PMS_P2;Temp;Humidity;BMP_temperature;BMP_pressure;BME280_temperature;BME280_humidity;BME280_pressure;Samples;Min_cycle;Max_cycle;Signal;HPM_P1;HPM_P2
2020/12/10 00:01:06;;;;;;;8.90;7.75;;;;;;;5.70;95.93;99496.56;5078449;28;20114;-78
2020/12/10 00:04:10;;;;;;;9.57;8.52;;;;;;;5.67;95.88;99494.16;5074749;28;20136;-80
2020/12/10 00:07:21;;;;;;;12.25;8.88;;;;;;;5.66;96.05;99497.78;5094050;28;20493;-78
2020/12/10 00:10:25;;;;;;;11.25;9.40;;;;;;;5.68;95.57;99501.16;5083348;28;20051;-78
2020/12/10 00:13:29;;;;;;;11.55;9.18;;;;;;;5.71;95.81;99500.91;5078857;28;20047;-79
2020/12/10 00:16:33;;;;;;;12.98;11.05;;;;;;;5.63;95.49;99501.53;5096356;28;20047;-77
2020/12/10 00:19:41;;;;;;;14.23;11.10;;;;;;;5.57;95.93;99496.72;5096207;28;20079;-77
2020/12/10 00:22:45;;;;;;;12.48;10.65;;;;;;;5.49;95.86;99493.81;5092378;28;20145;-79
2020/12/10 00:25:49;;;;;;;16.02;12.10;;;;;;;5.42;95.84;99503.28;5087394;28;20051;-77
2020/12/10 00:28:54;;;;;;;12.00;10.45;;;;;;;5.37;95.90;99496.63;5096455;28;20075;-76
2020/12/10 00:31:58;;;;;;;12.40;10.85;;;;;;;5.36;96.01;99495.78;5091224;28;20055;-77
2020/12/10 00:35:05;;;;;;;15.02;10.45;;;;;;;5.19;95.62;99499.78;5076015;28;20048;-79
2020/12/10 00:38:09;;;;;;;12.77;10.10;;;;;;;5.07;95.86;99502.56;5063445;28;20509;-78
2020/12/10 00:41:14;;;;;;;11.30;9.88;;;;;;;5.10;95.90;99486.38;5079135;28;20105;-77
2020/12/10 00:44:19;;;;;;;12.02;10.45;;;;;;;5.07;95.63;99490.13;5088105;28;20386;-78
2020/12/10 00:47:23;;;;;;;11.77;9.90;;;;;;;5.09;95.49;99487.31;5075672;28;20040;-77
2020/12/10 00:50:32;;;;;;;10.80;9.68;;;;;;;4.99;95.53;99492.53;5063370;28;20039;-77
2020/12/10 00:53:36;;;;;;;12.50;9.55;;;;;;;4.94;95.37;99499.16;5086513;28;20047;-77
2020/12/10 00:56:41;;;;;;;11.32;9.63;;;;;;;4.94;95.31;99508.00;5075173;28;20060;-78
2020/12/10 00:59:45;;;;;;;12.10;9.60;;;;;;;4.94;95.34;99509.78;5075260;28;20059;-80
2020/12/10 01:02:50;;;;;;;11.93;10.07;;;;;;;4.95;95.49;99500.88;5090912;28;20114;-79
2020/12/10 01:05:54;;;;;;;13.23;10.75;;;;;;;4.95;94.80;99520.34;5081633;28;20383;-78
2020/12/10 01:08:59;;;;;;;12.27;10.65;;;;;;;4.99;94.69;99521.78;5075146;28;20403;-77
2020/12/10 01:12:06;;;;;;;12.60;10.35;;;;;;;4.97;94.14;99531.69;5075454;28;20047;-77
2020/12/10 01:15:11;;;;;;;12.88;10.50;;;;;;;4.92;94.07;99522.38;5076390;28;20067;-77
2020/12/10 01:18:16;;;;;;;11.07;9.25;;;;;;;5.02;93.88;99531.31;5095291;28;20059;-77
2020/12/10 01:21:34;;;;;;;11.48;10.27;;;;;;;5.01;94.21;99513.69;5095267;28;20070;-78
2020/12/10 01:24:38;;;;;;;11.70;9.40;;;;;;;5.07;94.27;99516.72;5074825;28;20495;-78
2020/12/10 01:27:42;;;;;;;10.80;9.65;;;;;;;5.06;94.46;99515.00;5082686;28;20070;-78
2020/12/10 01:30:47;;;;;;;11.90;9.95;;;;;;;5.07;93.92;99524.69;5074749;28;20220;-77
2020/12/10 01:33:53;;;;;;;9.85;8.65;;;;;;;5.02;93.84;99523.34;5074691;28;20158;-77
2020/12/10 01:36:57;;;;;;;10.90;9.18;;;;;;;4.96;94.16;99515.88;5074554;28;20056;-77
2020/12/10 01:40:03;;;;;;;9.82;8.60;;;;;;;5.00;94.18;99519.97;5074672;28;20051;-78
2020/12/10 01:43:08;;;;;;;11.65;8.77;;;;;;;4.95;93.98;99512.34;5077071;28;20047;-78
2020/12/10 01:46:14;;;;;;;10.20;9.05;;;;;;;4.90;94.45;99506.56;5084091;28;20051;-79
2020/12/10 01:49:19;;;;;;;10.68;8.82;;;;;;;4.87;94.52;99509.44;5077850;28;20055;-77
2020/12/10 01:52:24;;;;;;;10.90;8.65;;;;;;;4.83;94.52;99508.00;5074460;28;20057;-77
2020/12/10 01:55:28;;;;;;;9.95;8.25;;;;;;;4.77;94.73;99497.81;5074153;28;20410;-76
2020/12/10 01:58:35;;;;;;;10.50;8.20;;;;;;;4.75;94.92;99496.25;5084845;28;20494;-76
2020/12/10 02:01:40;;;;;;;10.98;8.38;;;;;;;4.71;94.79;99484.19;5080469;28;20055;-77
2020/12/10 02:04:44;;;;;;;10.13;9.07;;;;;;;4.70;94.71;99471.84;5080195;28;20043;-78
2020/12/10 02:07:49;;;;;;;10.45;8.63;;;;;;;4.62;94.94;99484.91;5081712;28;20051;-78
2020/12/10 02:10:53;;;;;;;11.73;9.15;;;;;;;4.62;94.94;99492.88;5088368;28;20051;-78
2020/12/10 02:13:57;;;;;;;11.70;8.80;;;;;;;4.65;94.75;99495.28;5094686;28;20043;-77
2020/12/10 02:17:05;;;;;;;11.48;9.75;;;;;;;4.65;94.58;99487.28;5080302;28;20102;-76
2020/12/10 02:20:10;;;;;;;10.50;9.15;;;;;;;4.68;94.85;99482.59;5094618;28;20059;-78
2020/12/10 02:23:14;;;;;;;13.70;10.07;;;;;;;4.69;94.36;99484.28;5079389;28;20039;-78
2020/12/10 02:26:22;;;;;;;15.15;10.00;;;;;;;4.74;94.33;99489.25;5088347;28;20059;-79
2020/12/10 02:29:28;;;;;;;14.35;10.65;;;;;;;4.80;94.17;99486.97;5093802;28;20055;-76
2020/12/10 02:32:32;;;;;;;12.98;10.70;;;;;;;4.89;94.00;99496.06;5094130;28;20047;-77
2020/12/10 02:35:39;;;;;;;12.45;9.93;;;;;;;4.96;94.00;99492.75;5094326;28;20047;-77
2020/12/10 02:38:43;;;;;;;12.13;10.35;;;;;;;4.94;93.01;99485.88;5073730;28;20052;-79
2020/12/10 02:41:51;;;;;;;11.93;9.25;;;;;;;4.98;92.87;99479.38;5073825;28;20055;-79
2020/12/10 02:44:55;;;;;;;12.30;10.57;;;;;;;4.90;92.53;99479.97;5069738;28;20055;-79
2020/12/10 02:47:59;;;;;;;12.30;10.18;;;;;;;4.91;92.46;99468.38;5073767;28;20048;-79
2020/12/10 02:51:04;;;;;;;11.55;9.65;;;;;;;4.83;91.91;99465.47;5074031;28;20051;-77
2020/12/10 02:54:09;;;;;;;12.63;9.30;;;;;;;4.88;92.45;99462.44;5073941;28;20047;-79
2020/12/10 02:57:13;;;;;;;11.88;9.55;;;;;;;4.89;92.68;99466.81;5073473;28;20052;-76
2020/12/10 03:00:18;;;;;;;11.90;9.90;;;;;;;4.81;92.93;99461.22;5073624;28;20055;-76
2020/12/10 03:03:22;;;;;;;12.45;9.55;;;;;;;4.87;92.83;99463.38;5073900;28;20048;-77
2020/12/10 03:06:27;;;;;;;10.98;9.32;;;;;;;4.82;93.29;99469.06;5089775;28;20051;-77
2020/12/10 03:09:32;;;;;;;11.32;9.27;;;;;;;4.80;93.09;99464.84;5085591;28;20070;-77
2020/12/10 03:12:36;;;;;;;10.93;9.02;;;;;;;4.79;93.38;99466.66;5104780;28;20481;-78
2020/12/10 03:15:42;;;;;;;10.90;8.60;;;;;;;4.85;93.39;99473.31;5094122;28;20055;-77
2020/12/10 03:18:46;;;;;;;12.35;9.13;;;;;;;4.83;93.60;99469.94;5093862;28;20059;-76
2020/12/10 03:21:51;;;;;;;13.07;7.45;;;;;;;4.86;93.48;99456.41;5073959;28;20060;-78
2020/12/10 03:24:55;;;;;;;9.10;7.93;;;;;;;4.91;93.24;99448.91;5078029;28;20506;-77
2020/12/10 03:28:00;;;;;;;10.25;7.50;;;;;;;4.90;93.13;99441.88;5082961;28;20047;-78
2020/12/10 03:31:04;;;;;;;9.35;7.97;;;;;;;4.90;93.23;99439.22;5086772;28;20052;-78
2020/12/10 03:34:09;;;;;;;9.30;7.63;;;;;;;4.91;93.10;99427.63;5073785;28;20067;-76
2020/12/10 03:37:13;;;;;;;9.45;7.03;;;;;;;4.90;93.17;99440.06;5075239;28;20047;-78
2020/12/10 03:40:17;;;;;;;8.40;6.60;;;;;;;4.92;93.06;99448.78;5107282;28;20397;-77
2020/12/10 03:43:21;;;;;;;9.10;6.80;;;;;;;4.96;93.33;99436.91;5108568;28;20044;-78
2020/12/10 03:46:25;;;;;;;8.18;6.50;;;;;;;5.00;92.96;99434.88;5092641;28;20047;-77
2020/12/10 03:49:30;;;;;;;8.23;6.30;;;;;;;5.05;93.24;99448.66;5075203;28;20047;-79
2020/12/10 03:52:34;;;;;;;6.97;5.88;;;;;;;5.09;92.67;99450.09;5086869;28;20378;-77
2020/12/10 03:55:38;;;;;;;8.18;5.85;;;;;;;5.19;93.21;99451.91;5088197;28;20048;-79
2020/12/10 03:58:43;;;;;;;8.90;5.95;;;;;;;5.21;93.12;99454.44;5076949;28;20059;-80
2020/12/10 04:01:47;;;;;;;7.50;5.95;;;;;;;5.12;92.77;99449.84;5069878;28;20141;-78
2020/12/10 04:04:51;;;;;;;6.53;5.10;;;;;;;5.11;92.92;99453.50;5084547;28;20048;-77
2020/12/10 04:07:55;;;;;;;6.28;4.88;;;;;;;5.12;92.67;99455.16;5080026;28;20390;-78
2020/12/10 04:11:00;;;;;;;5.97;4.93;;;;;;;5.07;92.70;99442.25;5076544;28;20039;-76
2020/12/10 04:14:06;;;;;;;6.68;5.32;;;;;;;5.10;93.07;99441.16;5077460;28;20048;-77
2020/12/10 04:17:10;;;;;;;6.43;5.15;;;;;;;5.09;93.38;99442.09;5087793;28;20063;-78
2020/12/10 04:20:14;;;;;;;6.97;4.70;;;;;;;5.09;93.28;99445.63;5097102;28;20055;-77
2020/12/10 04:23:18;;;;;;;6.32;5.18;;;;;;;5.08;93.66;99443.09;5097136;28;20043;-77
2020/12/10 04:26:23;;;;;;;5.70;4.70;;;;;;;5.11;93.29;99443.69;5076610;28;20050;-78
2020/12/10 04:29:27;;;;;;;4.90;4.30;;;;;;;5.12;93.43;99449.84;5087866;28;20063;-79
2020/12/10 04:32:32;;;;;;;5.15;4.40;;;;;;;5.22;93.42;99456.13;5085117;28;20051;-78
2020/12/10 04:35:36;;;;;;;6.10;4.70;;;;;;;5.21;93.56;99457.09;5084494;28;20067;-74
2020/12/10 04:38:41;;;;;;;5.07;4.35;;;;;;;5.21;93.59;99460.59;5076584;28;20048;-78
2020/12/10 04:41:47;;;;;;;5.43;4.32;;;;;;;5.28;93.90;99458.31;5063986;28;20092;-79
2020/12/10 04:44:51;;;;;;;6.05;4.88;;;;;;;5.23;93.52;99461.31;5076226;28;20055;-78
2020/12/10 04:47:56;;;;;;;6.35;4.88;;;;;;;5.25;93.24;99463.88;5076180;28;20067;-78
2020/12/10 04:51:04;;;;;;;5.78;5.18;;;;;;;5.28;93.26;99459.13;5093179;28;20071;-78
2020/12/10 04:54:09;;;;;;;7.10;5.53;;;;;;;5.26;93.22;99455.75;5079330;28;20055;-79
2020/12/10 04:57:17;;;;;;;6.63;5.65;;;;;;;5.23;92.69;99447.19;5075560;28;20059;-79
2020/12/10 05:00:22;;;;;;;7.55;6.47;;;;;;;5.23;92.92;99455.19;5070839;28;20059;-78
2020/12/10 05:03:27;;;;;;;7.10;6.40;;;;;;;5.26;92.77;99453.09;5076263;28;20075;-77
2020/12/10 05:06:32;;;;;;;8.60;6.72;;;;;;;5.18;92.32;99449.38;5076126;28;20047;-78
2020/12/10 05:09:36;;;;;;;6.85;6.03;;;;;;;5.20;92.13;99450.09;5075658;28;20055;-76
2020/12/10 05:12:41;;;;;;;9.85;7.53;;;;;;;5.12;91.93;99452.50;5085483;28;20504;-77
2020/12/10 05:15:44;;;;;;;11.95;7.32;;;;;;;5.13;92.33;99451.56;5095810;28;20067;-77
2020/12/10 05:18:49;;;;;;;8.05;6.97;;;;;;;5.17;91.83;99459.16;5088127;28;20047;-78
2020/12/10 05:22:01;;;;;;;8.05;6.82;;;;;;;5.21;91.99;99460.59;5075736;28;20383;-77
2020/12/10 05:25:05;;;;;;;10.07;7.20;;;;;;;5.30;91.82;99476.81;5086509;28;20063;-78
2020/12/10 05:28:09;;;;;;;11.45;7.25;;;;;;;5.36;92.16;99469.16;5091389;28;20398;-78
2020/12/10 05:31:18;;;;;;;8.02;7.13;;;;;;;5.32;91.51;99465.06;5078885;28;20044;-77
2020/12/10 05:34:25;;;;;;;12.45;7.55;;;;;;;5.31;91.21;99463.34;5089560;28;20043;-78
2020/12/10 05:37:30;;;;;;;11.07;7.80;;;;;;;5.34;91.33;99468.44;5075255;28;20048;-77
2020/12/10 05:40:35;;;;;;;10.18;7.57;;;;;;;5.36;90.94;99458.50;5075139;28;20505;-78
2020/12/10 05:43:39;;;;;;;10.38;7.47;;;;;;;5.42;91.14;99468.69;5075338;28;20067;-78
2020/12/10 05:46:44;;;;;;;8.38;6.85;;;;;;;5.43;91.23;99466.88;5075069;28;20052;-77
2020/12/10 05:49:48;;;;;;;15.43;6.63;;;;;;;5.40;90.98;99465.31;5079785;28;20051;-79
2020/12/10 05:52:55;;;;;;;7.82;6.35;;;;;;;5.39;90.78;99474.25;5089006;28;20059;-79
2020/12/10 05:56:03;;;;;;;7.00;5.68;;;;;;;5.36;91.04;99471.00;5094887;28;20051;-79
2020/12/10 05:59:07;;;;;;;8.45;7.30;;;;;;;5.43;91.44;99475.69;5034613;28;20056;-78
2020/12/10 06:02:11;;;;;;;8.52;6.57;;;;;;;5.41;91.70;99472.28;5041043;28;20052;-78
2020/12/10 06:05:17;;;;;;;49.55;37.45;;;;;;;5.28;91.73;99468.94;5054729;28;20487;-78
2020/12/10 06:08:21;;;;;;;124.43;81.93;;;;;;;5.31;91.58;99471.34;5053805;28;20052;-78
2020/12/10 06:11:25;;;;;;;13.80;10.57;;;;;;;5.38;91.84;99477.03;5041777;28;20052;-78
2020/12/10 06:14:30;;;;;;;9.88;6.88;;;;;;;5.38;91.75;99469.06;5048214;28;20056;-79
2020/12/10 06:18:15;;;;;;;6.88;5.95;;;;;;;5.44;91.57;99476.53;5038130;28;20052;-79
2020/12/10 06:21:43;;;;;;;6.70;5.25;;;;;;;5.46;91.96;99480.75;5036223;28;20379;-78
2020/12/10 06:24:47;;;;;;;6.85;5.38;;;;;;;5.50;91.91;99471.56;5041578;28;20051;-78
2020/12/10 06:27:52;;;;;;;6.20;4.97;;;;;;;5.52;91.88;99461.66;5054302;28;20056;-77
2020/12/10 06:31:08;;;;;;;7.72;5.75;;;;;;;5.54;92.30;99469.50;5053525;28;20051;-79
2020/12/10 06:34:35;;;;;;;8.95;6.72;;;;;;;5.58;92.45;99471.78;5052198;28;20056;-78
2020/12/10 06:37:47;;;;;;;6.88;6.10;;;;;;;5.55;92.05;99473.84;5049848;28;20055;-78
2020/12/10 06:40:59;;;;;;;8.00;6.55;;;;;;;5.55;91.97;99479.19;5034111;28;20053;-77
2020/12/10 06:44:03;;;;;;;7.70;5.97;;;;;;;5.48;92.59;99476.16;5036814;28;20055;-76
2020/12/10 06:47:08;;;;;;;8.88;6.28;;;;;;;5.46;92.80;99477.25;5053439;28;20400;-76
2020/12/10 06:50:34;;;;;;;8.27;6.28;;;;;;;5.39;93.05;99482.22;5054254;28;20055;-75
2020/12/10 06:53:39;;;;;;;10.88;7.88;;;;;;;5.35;93.38;99482.59;5048933;28;20052;-77
2020/12/10 06:57:00;;;;;;;10.95;7.90;;;;;;;5.40;93.67;99486.59;5044469;28;20056;-78
2020/12/10 07:00:05;;;;;;;9.45;7.28;;;;;;;5.50;93.82;99492.00;5075039;28;20055;-79
2020/12/10 07:03:23;;;;;;;11.75;8.32;;;;;;;5.54;93.45;99491.63;5076570;28;20043;-77
2020/12/10 07:06:27;;;;;;;17.98;8.95;;;;;;;5.58;93.99;99500.22;5093581;28;20055;-77
2020/12/10 07:09:59;;;;;;;13.23;9.27;;;;;;;5.56;93.56;99500.34;5060963;28;20051;-77
2020/12/10 07:13:03;;;;;;;17.08;9.20;;;;;;;5.58;93.98;99485.09;5061622;28;20047;-77
2020/12/10 07:16:07;;;;;;;14.90;9.55;;;;;;;5.61;93.90;99492.81;5080831;28;20071;-77
2020/12/10 07:19:11;;;;;;;16.08;8.93;;;;;;;5.59;94.09;99492.13;5088714;28;20073;-77
2020/12/10 07:22:15;;;;;;;13.38;7.70;;;;;;;5.59;93.80;99499.25;5097194;28;20048;-77
2020/12/10 07:25:23;;;;;;;10.00;7.10;;;;;;;5.65;93.90;99496.91;5085573;28;20051;-78
2020/12/10 07:28:29;;;;;;;10.82;7.35;;;;;;;5.67;93.54;99495.00;5097783;28;20071;-77
2020/12/10 07:31:33;;;;;;;11.50;6.53;;;;;;;5.72;93.38;99492.81;5087575;28;20059;-77
2020/12/10 07:34:43;;;;;;;11.32;6.43;;;;;;;5.74;92.81;99501.50;5096707;28;20051;-78
2020/12/10 07:37:48;;;;;;;8.82;6.15;;;;;;;5.75;92.47;99499.72;5090526;28;20050;-77
2020/12/10 07:40:54;;;;;;;7.15;6.25;;;;;;;5.72;92.39;99503.47;5076981;28;20051;-77
2020/12/10 07:44:00;;;;;;;8.18;6.00;;;;;;;5.72;92.26;99500.81;5064647;28;20056;-78
2020/12/10 07:47:12;;;;;;;7.03;6.25;;;;;;;5.76;92.21;99499.56;5086109;28;20055;-78
2020/12/10 07:50:24;;;;;;;9.57;5.85;;;;;;;5.87;91.95;99510.25;5096782;28;20051;-77
2020/12/10 07:53:29;;;;;;;7.20;5.85;;;;;;;5.89;91.54;99502.97;5096238;28;20047;-78
2020/12/10 07:56:34;;;;;;;8.68;5.90;;;;;;;5.86;91.05;99489.88;5094555;28;20051;-78
2020/12/10 07:59:40;;;;;;;9.13;6.43;;;;;;;5.97;90.55;99505.00;5085319;28;20059;-78
2020/12/10 08:02:58;;;;;;;8.68;7.05;;;;;;;5.97;90.38;99507.66;5096180;28;20051;-77
2020/12/10 08:06:09;;;;;;;11.25;5.70;;;;;;;5.95;90.46;99511.41;5078668;28;20063;-77
2020/12/10 08:09:14;;;;;;;8.73;6.25;;;;;;;5.92;90.14;99512.50;5090936;28;20043;-77
2020/12/10 08:12:21;;;;;;;9.27;5.88;;;;;;;5.93;90.19;99516.84;5087314;28;20051;-77
2020/12/10 08:15:26;;;;;;;9.05;5.75;;;;;;;5.98;89.71;99514.66;5076542;28;20398;-77
2020/12/10 08:18:30;;;;;;;8.48;5.75;;;;;;;6.04;89.71;99522.16;5072853;28;20047;-77
2020/12/10 08:21:34;;;;;;;6.95;4.97;;;;;;;6.07;89.06;99529.91;5076193;28;20060;-77
2020/12/10 08:24:44;;;;;;;6.65;5.30;;;;;;;6.09;88.36;99535.94;5063109;28;20411;-80
2020/12/10 08:27:48;;;;;;;6.90;5.40;;;;;;;6.15;88.19;99527.44;5070047;28;20414;-78
2020/12/10 08:30:53;;;;;;;7.00;5.35;;;;;;;6.25;88.62;99524.84;5076241;28;20052;-79
2020/12/10 08:33:57;;;;;;;6.93;5.40;;;;;;;6.30;87.99;99523.50;5075899;28;20060;-77
2020/12/10 08:37:06;;;;;;;5.90;4.78;;;;;;;6.40;87.92;99528.91;5092947;28;20402;-77
2020/12/10 08:40:12;;;;;;;10.55;5.82;;;;;;;6.55;87.29;99532.94;5085104;28;20435;-78
2020/12/10 08:43:17;;;;;;;9.35;6.25;;;;;;;6.57;86.96;99521.19;5096112;28;20043;-77
2020/12/10 08:46:22;;;;;;;7.15;5.38;;;;;;;6.67;86.51;99531.06;5095706;28;20044;-77
2020/12/10 08:49:26;;;;;;;8.18;5.72;;;;;;;6.67;86.43;99528.38;5083092;28;20044;-77
2020/12/10 08:52:31;;;;;;;8.75;5.82;;;;;;;6.68;86.74;99524.75;5075620;28;20055;-79
2020/12/10 08:55:41;;;;;;;7.68;5.72;;;;;;;6.79;86.11;99528.19;5063612;28;20056;-78
2020/12/10 08:58:45;;;;;;;8.35;5.70;;;;;;;6.95;85.74;99535.72;5083625;28;20043;-78
2020/12/10 09:01:53;;;;;;;8.75;5.72;;;;;;;7.11;86.04;99550.28;5083355;28;20050;-78
2020/12/10 09:04:59;;;;;;;8.85;5.97;;;;;;;7.22;85.67;99536.00;5079242;28;20490;-78
2020/12/10 09:08:03;;;;;;;9.52;5.55;;;;;;;7.39;85.39;99542.53;5099731;28;20055;-79
2020/12/10 09:11:08;;;;;;;9.07;5.55;;;;;;;7.47;85.27;99535.56;5094307;28;20054;-79
2020/12/10 09:14:13;;;;;;;8.57;5.88;;;;;;;7.56;85.05;99553.44;5095410;28;20446;-78
2020/12/10 09:17:17;;;;;;;8.15;6.50;;;;;;;7.61;84.70;99559.22;5095045;28;20055;-77
2020/12/10 09:20:22;;;;;;;9.40;6.50;;;;;;;7.57;85.32;99562.31;5093870;28;20051;-77
2020/12/10 09:23:26;;;;;;;9.77;6.90;;;;;;;7.52;85.07;99560.03;5082287;28;20055;-77
2020/12/10 09:26:31;;;;;;;8.90;6.45;;;;;;;7.56;85.83;99566.78;5081345;28;20055;-77
2020/12/10 09:29:39;;;;;;;13.00;7.28;;;;;;;7.61;85.44;99561.03;5095227;28;20043;-77
2020/12/10 09:32:44;;;;;;;8.60;6.78;;;;;;;7.72;85.10;99555.59;5095280;28;20051;-77
2020/12/10 09:35:48;;;;;;;9.35;7.18;;;;;;;7.90;85.36;99558.47;5076144;28;20410;-77
2020/12/10 09:38:53;;;;;;;11.23;8.23;;;;;;;7.97;84.96;99546.25;5081019;28;20055;-77
2020/12/10 09:41:57;;;;;;;14.68;10.30;;;;;;;7.99;85.33;99547.81;5094520;28;20055;-78
2020/12/10 09:45:02;;;;;;;11.13;9.23;;;;;;;7.98;85.54;99555.94;5095000;28;20051;-77
2020/12/10 09:48:07;;;;;;;11.18;8.20;;;;;;;7.91;85.84;99536.94;5092668;28;20402;-77
2020/12/10 09:51:12;;;;;;;11.93;8.05;;;;;;;7.78;85.75;99547.88;5091800;28;20055;-78
2020/12/10 09:57:39;;;;;;;14.60;10.35;;;;;;;7.69;86.94;99531.84;5094288;28;20047;-78
2020/12/10 10:00:49;;;;;;;16.30;11.00;;;;;;;7.68;87.18;99535.47;5094422;28;20043;-77
2020/12/10 10:03:52;;;;;;;18.23;12.20;;;;;;;7.58;87.31;99532.78;5088060;28;20051;-77
2020/12/10 10:06:56;;;;;;;;;;;;;;;7.59;87.37;99534.47;5086211;28;20070;-78
2020/12/10 10:10:01;;;;;;;18.35;12.80;;;;;;;7.60;87.47;99533.50;5085068;28;19920;-79
2020/12/10 10:13:06;;;;;;;18.20;13.60;;;;;;;7.73;87.07;99522.56;5072486;28;20052;-79
2020/12/10 10:16:10;;;;;;;24.67;16.25;;;;;;;7.83;86.74;99526.09;5094258;28;20043;-78
2020/12/10 10:19:15;;;;;;;23.83;16.52;;;;;;;7.87;86.16;99519.50;5076232;28;20055;-78
2020/12/10 10:22:19;;;;;;;;;;;;;;;7.95;86.45;99516.97;5074008;28;20426;-78
2020/12/10 10:25:23;;;;;;;24.23;17.55;;;;;;;8.08;86.33;99509.53;5073932;28;19923;-76
2020/12/10 10:28:27;;;;;;;26.33;18.67;;;;;;;8.25;85.98;99516.00;5074025;28;20051;-78
2020/12/10 10:31:34;;;;;;;26.25;18.73;;;;;;;8.50;85.41;99521.69;5075769;28;20051;-79
2020/12/10 10:34:39;;;;;;;26.35;19.23;;;;;;;8.59;83.97;99508.44;5080972;28;20055;-78
2020/12/10 10:37:44;;;;;;;25.17;18.48;;;;;;;8.65;83.68;99513.22;5093516;28;20055;-78
2020/12/10 10:40:48;;;;;;;27.40;20.52;;;;;;;8.80;83.21;99512.63;5081412;28;20059;-77
2020/12/10 10:43:52;;;;;;;27.33;19.42;;;;;;;8.93;83.00;99501.63;5093419;28;20051;-78
2020/12/10 10:46:57;;;;;;;29.92;20.92;;;;;;;8.92;82.84;99510.63;5081376;28;20051;-78
2020/12/10 10:50:01;;;;;;;37.42;26.00;;;;;;;8.84;82.66;99508.66;5093535;28;20047;-79
2020/12/10 10:53:05;;;;;;;42.28;31.02;;;;;;;8.85;83.30;99515.72;5093332;28;20051;-78
2020/12/10 10:56:10;;;;;;;39.80;28.25;;;;;;;8.87;83.51;99507.53;5080259;28;20075;-78
2020/12/10 10:59:16;;;;;;;37.72;26.20;;;;;;;8.88;82.99;99502.06;5068720;28;20460;-76
2020/12/10 11:02:20;;;;;;;33.20;24.77;;;;;;;8.89;82.88;99497.53;5073119;28;20047;-78
2020/12/10 11:05:24;;;;;;;31.88;24.60;;;;;;;8.92;82.97;99487.38;5073418;28;20059;-78
2020/12/10 11:08:29;;;;;;;30.98;24.20;;;;;;;9.02;83.09;99490.88;5060631;28;20501;-77
2020/12/10 11:11:33;;;;;;;34.28;24.30;;;;;;;9.04;82.66;99493.41;5073185;28;20075;-78
2020/12/10 11:14:38;;;;;;;30.30;22.63;;;;;;;9.05;82.60;99497.78;5070560;28;20044;-77
2020/12/10 11:17:42;;;;;;;30.67;22.23;;;;;;;9.07;82.47;99491.28;5056103;28;20066;-78
2020/12/10 11:20:46;;;;;;;31.55;22.88;;;;;;;9.11;82.56;99484.63;5072805;28;20051;-78
2020/12/10 11:23:51;;;;;;;28.20;23.10;;;;;;;9.06;82.39;99486.09;5072632;28;20390;-79
2020/12/10 11:26:55;;;;;;;30.50;22.40;;;;;;;9.05;82.52;99479.03;5072239;28;20044;-78
2020/12/10 11:30:00;;;;;;;31.70;22.23;;;;;;;9.03;82.86;99481.03;5059264;28;20044;-78
2020/12/10 11:33:04;;;;;;;28.88;22.63;;;;;;;8.97;83.36;99485.13;5061399;28;20044;-79
2020/12/10 11:36:09;;;;;;;33.92;23.90;;;;;;;8.96;83.55;99477.25;5060433;28;20047;-78
2020/12/10 11:39:15;;;;;;;33.17;24.25;;;;;;;8.94;83.30;99487.22;5072733;28;20048;-79
2020/12/10 11:42:19;;;;;;;32.65;23.98;;;;;;;8.91;83.38;99480.34;5060032;28;20407;-78
2020/12/10 11:45:24;;;;;;;31.30;23.02;;;;;;;8.87;83.39;99468.25;5072873;28;20044;-76
2020/12/10 11:48:28;;;;;;;33.13;24.10;;;;;;;8.89;83.30;99473.44;5072744;28;20075;-79
2020/12/10 11:51:33;;;;;;;32.10;22.63;;;;;;;8.90;83.33;99461.75;5072926;28;20047;-79
2020/12/10 11:54:37;;;;;;;33.20;22.92;;;;;;;8.93;83.33;99465.00;5072318;28;20502;-77
2020/12/10 11:57:41;;;;;;;32.88;23.40;;;;;;;8.93;83.71;99459.66;5072423;28;20059;-78
2020/12/10 12:00:45;;;;;;;29.77;23.27;;;;;;;8.92;83.39;99465.13;5074322;28;20052;-78
2020/12/10 12:03:50;;;;;;;31.50;22.58;;;;;;;8.98;83.60;99457.38;5076234;28;20489;-79
2020/12/10 12:06:54;;;;;;;31.63;22.95;;;;;;;8.99;83.39;99450.16;5064205;28;20071;-78
2020/12/10 12:09:59;;;;;;;31.08;23.08;;;;;;;9.06;83.21;99460.13;5056608;28;20047;-79
2020/12/10 12:13:03;;;;;;;32.40;23.67;;;;;;;9.12;83.42;99456.03;5050344;28;20047;-79
2020/12/10 12:16:07;;;;;;;29.08;22.48;;;;;;;9.18;82.77;99456.28;5076118;28;20395;-80
2020/12/10 12:19:11;;;;;;;29.42;22.40;;;;;;;9.23;82.54;99449.66;5075874;28;20047;-79
2020/12/10 12:22:16;;;;;;;30.20;23.65;;;;;;;9.26;81.87;99450.19;5076098;28;20056;-79
2020/12/10 12:25:20;;;;;;;30.35;22.52;;;;;;;9.27;81.70;99443.84;5072495;28;20051;-79
2020/12/10 12:28:24;;;;;;;33.75;23.27;;;;;;;9.28;81.57;99448.22;5064326;28;20063;-85
2020/12/10 12:31:33;;;;;;;30.63;22.85;;;;;;;9.31;81.91;99449.78;5070704;28;20056;-80
2020/12/10 12:34:37;;;;;;;30.50;23.30;;;;;;;9.29;81.65;99451.72;5042291;28;20052;-81
2020/12/10 12:37:41;;;;;;;30.17;22.98;;;;;;;9.30;81.30;99456.97;5044589;28;20505;-79
2020/12/10 12:40:46;;;;;;;29.52;22.58;;;;;;;9.30;81.22;99451.59;5075566;28;20052;-80
2020/12/10 12:43:50;;;;;;;29.85;23.38;;;;;;;9.31;81.44;99437.19;5063071;28;20399;-78
2020/12/10 12:46:55;;;;;;;31.20;22.38;;;;;;;9.35;81.83;99440.44;5075782;28;20051;-81
2020/12/10 12:49:59;;;;;;;30.42;23.27;;;;;;;9.41;81.51;99437.16;5075473;28;20054;-80
2020/12/10 12:53:03;;;;;;;28.98;22.70;;;;;;;9.40;81.04;99438.16;5062771;28;20055;-80
2020/12/10 12:56:08;;;;;;;32.47;23.15;;;;;;;9.43;80.80;99430.66;5075012;28;20059;-80
2020/12/10 12:59:12;;;;;;;27.40;22.13;;;;;;;9.45;81.02;99426.00;5075136;28;20390;-80
2020/12/10 13:02:16;;;;;;;31.40;22.30;;;;;;;9.50;81.08;99431.75;5075012;28;20056;-80
2020/12/10 13:05:21;;;;;;;30.23;22.85;;;;;;;9.47;80.88;99429.38;5062851;28;20498;-80
2020/12/10 13:08:25;;;;;;;29.70;21.98;;;;;;;9.47;81.11;99432.06;5074597;28;20502;-80
2020/12/10 13:11:29;;;;;;;29.08;22.08;;;;;;;9.49;81.10;99429.22;5074815;28;20059;-78
2020/12/10 13:14:34;;;;;;;30.70;24.05;;;;;;;9.48;80.88;99422.19;5074560;28;20375;-78
2020/12/10 13:17:38;;;;;;;28.15;22.48;;;;;;;9.47;80.88;99418.66;5074420;28;20502;-77
2020/12/10 13:20:42;;;;;;;30.83;22.65;;;;;;;9.42;81.13;99415.59;5074851;28;20047;-80
2020/12/10 13:23:46;;;;;;;29.13;21.77;;;;;;;9.40;81.54;99416.72;5067687;28;20060;-76
2020/12/10 13:26:51;;;;;;;32.30;24.48;;;;;;;9.24;81.16;99408.50;5058554;28;20060;-75
2020/12/10 13:29:56;;;;;;;30.08;23.30;;;;;;;9.23;82.15;99413.03;5067554;28;20044;-76
2020/12/10 13:33:00;;;;;;;31.98;24.58;;;;;;;9.13;80.97;99413.03;5066476;28;20059;-78
2020/12/10 13:36:08;;;;;;;33.20;23.25;;;;;;;9.00;82.60;99409.88;5070113;28;20062;-76
2020/12/10 13:39:13;;;;;;;35.20;24.77;;;;;;;8.99;83.13;99424.25;5069268;28;20051;-78
2020/12/10 13:42:18;;;;;;;30.40;23.50;;;;;;;8.93;83.05;99421.34;5074058;28;20044;-76
2020/12/10 13:45:23;;;;;;;32.60;25.58;;;;;;;8.98;83.21;99413.72;5067992;28;20486;-78
2020/12/10 13:48:27;;;;;;;33.58;23.98;;;;;;;8.97;83.33;99417.34;5071267;28;20541;-80
2020/12/10 13:51:32;;;;;;;31.40;23.42;;;;;;;9.05;82.99;99425.50;5061466;28;20048;-80
2020/12/10 13:54:36;;;;;;;31.73;23.50;;;;;;;9.04;82.88;99419.31;5071065;28;20051;-81
2020/12/10 13:57:41;;;;;;;29.10;22.50;;;;;;;8.98;82.26;99409.19;5073452;28;20146;-79
2020/12/10 14:00:45;;;;;;;31.10;23.33;;;;;;;9.02;82.19;99415.09;5064912;28;20044;-80
2020/12/10 14:03:49;;;;;;;27.70;20.70;;;;;;;8.94;81.74;99417.66;5065546;28;20063;-79
2020/12/10 14:06:54;;;;;;;28.77;22.05;;;;;;;8.85;81.66;99418.53;5070129;28;20052;-79
2020/12/10 14:09:58;;;;;;;25.50;21.20;;;;;;;8.81;80.90;99419.84;5041683;28;20052;-80
2020/12/10 14:13:02;;;;;;;27.15;22.23;;;;;;;8.74;80.95;99419.56;5072819;28;20055;-80
2020/12/10 14:16:06;;;;;;;30.02;22.90;;;;;;;8.70;81.67;99420.84;5061184;28;20052;-80
2020/12/10 14:19:11;;;;;;;26.45;22.65;;;;;;;8.68;81.60;99422.81;5073476;28;20052;-80
2020/12/10 14:22:15;;;;;;;31.70;23.67;;;;;;;8.62;82.63;99427.91;5073301;28;20055;-83
2020/12/10 14:25:20;;;;;;;31.10;24.90;;;;;;;8.54;83.88;99422.44;5064657;28;20056;-79
2020/12/10 14:28:24;;;;;;;30.20;23.52;;;;;;;8.49;83.69;99430.91;5065221;28;20056;-81
2020/12/10 14:31:30;;;;;;;31.35;23.52;;;;;;;8.48;84.08;99431.88;5073238;28;20055;-80
2020/12/10 14:34:34;;;;;;;37.55;24.92;;;;;;;8.48;84.13;99445.25;5059518;28;20043;-78
2020/12/10 14:37:38;;;;;;;34.38;24.17;;;;;;;8.48;84.68;99446.09;5042519;28;20089;-79